Time,TemperatureF,DewpointF,PressureIn,WindDirection,WindDirectionDegrees,WindSpeedMPH,WindSpeedGustMPH,Humidity,HourlyPrecipIn,Conditions,Clouds,dailyrainin,SoftwareType,DateUTC
2013-02-09 00:00:00,18.9,10.7,29.41,NE,44,0.0,0.0,70,0.00,,---,0.00,VWS V12.07,2013-02-09 05:00:00,
2013-02-09 00:03:00,18.9,10.7,29.41,NE,54,0.0,0.0,70,0.00,,---,0.00,VWS V12.07,2013-02-09 05:03:00,
2013-02-09 00:09:00,18.9,10.7,29.38,NNE,25,0.0,0.0,70,0.00,,---,0.00,VWS V12.07,2013-02-09 05:09:00,
2013-02-09 00:15:00,18.7,10.5,29.38,NE,35,0.0,0.0,70,0.00,,---,0.00,VWS V12.07,2013-02-09 05:15:00,
2013-02-09 00:21:00,18.7,10.5,29.38,NE,40,0.0,0.0,70,0.00,,---,0.00,VWS V12.07,2013-02-09 05:21:00,
2013-02-09 00:27:00,18.5,10.4,29.38,NNE,18,0.0,0.0,70,0.00,,---,0.00,VWS V12.07,2013-02-09 05:27:00,
2013-02-09 00:34:00,18.5,10.4,29.38,ENE,58,0.0,0.0,70,0.00,,---,0.00,VWS V12.07,2013-02-09 05:34:00,
2013-02-09 00:39:00,18.3,9.9,29.35,NNE,33,0.0,0.0,69,0.00,,---,0.00,VWS V12.07,2013-02-09 05:39:00,
2013-02-09 00:45:00,18.1,9.7,29.35,ENE,68,0.0,0.0,69,0.00,,---,0.00,VWS V12.07,2013-02-09 05:45:00,
2013-02-09 00:51:00,18.0,9.5,29.38,NE,45,0.0,0.0,69,0.00,,---,0.00,VWS V12.07,2013-02-09 05:51:00,
2013-02-09 00:57:00,17.8,9.0,29.38,NE,45,0.0,0.0,68,0.00,,---,0.00,VWS V12.07,2013-02-09 05:57:00,
2013-02-09 01:04:00,17.6,8.9,29.38,NE,38,0.0,0.0,68,0.00,,---,0.00,VWS V12.07,2013-02-09 06:04:00,
2013-02-09 01:06:00,17.6,8.9,29.35,NE,55,0.0,0.0,68,0.00,,---,0.00,VWS V12.07,2013-02-09 06:06:00,
2013-02-09 01:12:00,17.6,8.9,29.35,NE,35,0.0,0.0,68,0.00,,---,0.00,VWS V12.07,2013-02-09 06:12:00,
2013-02-09 01:18:00,17.4,8.7,29.35,ESE,114,0.0,0.0,68,0.00,,---,0.00,VWS V12.07,2013-02-09 06:18:00,
2013-02-09 01:24:00,17.4,8.4,29.38,WNW,294,0.0,0.0,67,0.00,,---,0.00,VWS V12.07,2013-02-09 06:24:00,
2013-02-09 01:31:00,17.2,8.2,29.38,NNE,20,0.0,0.0,67,0.00,,---,0.00,VWS V12.07,2013-02-09 06:31:00,
2013-02-09 01:37:00,17.1,8.0,29.38,NNE,28,0.0,0.0,67,0.00,,---,0.00,VWS V12.07,2013-02-09 06:37:00,
2013-02-09 01:44:00,17.1,8.0,29.38,SSE,153,0.0,0.0,67,0.00,,---,0.00,VWS V12.07,2013-02-09 06:44:00,
2013-02-09 01:50:00,16.9,7.5,29.35,NNE,30,0.0,0.0,66,0.00,,---,0.00,VWS V12.07,2013-02-09 06:50:00,
2013-02-09 01:56:00,16.7,7.3,29.35,ESE,119,0.0,0.0,66,0.00,,---,0.00,VWS V12.07,2013-02-09 06:56:00,
2013-02-09 02:01:00,16.7,7.3,29.35,NNE,29,0.0,0.0,66,0.00,,---,0.00,VWS V12.07,2013-02-09 07:01:00,
2013-02-09 02:07:00,16.5,7.2,29.38,ENE,62,0.0,0.0,66,0.00,,---,0.00,VWS V12.07,2013-02-09 07:07:00,
2013-02-09 02:14:00,16.5,6.8,29.38,ENE,62,0.0,0.0,65,0.00,,---,0.00,VWS V12.07,2013-02-09 07:14:00,
2013-02-09 02:21:00,16.3,6.7,29.38,NNE,33,0.0,0.0,65,0.00,,---,0.00,VWS V12.07,2013-02-09 07:21:00,
2013-02-09 02:29:00,16.2,6.5,29.38,NE,41,0.0,0.0,65,0.00,,---,0.00,VWS V12.07,2013-02-09 07:29:00,
2013-02-09 02:34:00,16.2,6.5,29.38,ENE,64,0.0,0.0,65,0.00,,---,0.00,VWS V12.07,2013-02-09 07:34:00,
2013-02-09 02:40:00,16.0,6.0,29.38,NE,51,0.0,0.0,64,0.00,,---,0.00,VWS V12.07,2013-02-09 07:40:00,
2013-02-09 02:46:00,16.0,6.0,29.38,North,3,0.0,0.0,64,0.00,,---,0.00,VWS V12.07,2013-02-09 07:46:00,
2013-02-09 02:52:00,16.0,6.0,29.38,NNE,24,0.0,0.0,64,0.00,,---,0.00,VWS V12.07,2013-02-09 07:52:00,
2013-02-09 02:58:00,15.8,5.8,29.38,NE,36,0.0,0.0,64,0.00,,---,0.00,VWS V12.07,2013-02-09 07:58:00,
2013-02-09 03:04:00,16.0,6.0,29.38,East,81,0.0,0.0,64,0.00,,---,0.00,VWS V12.07,2013-02-09 08:04:00,
2013-02-09 03:11:00,16.0,6.3,29.38,NE,43,0.0,0.0,65,0.00,,---,0.00,VWS V12.07,2013-02-09 08:11:00,
2013-02-09 03:17:00,16.2,6.5,29.38,NE,52,0.0,0.0,65,0.00,,---,0.00,VWS V12.07,2013-02-09 08:17:00,
2013-02-09 03:24:00,16.3,6.7,29.41,NNE,16,0.0,0.0,65,0.00,,---,0.00,VWS V12.07,2013-02-09 08:24:00,
2013-02-09 03:30:00,16.3,7.0,29.41,NE,50,0.0,0.0,66,0.00,,---,0.00,VWS V12.07,2013-02-09 08:30:00,
2013-02-09 03:36:00,16.5,7.2,29.41,NE,55,0.0,0.0,66,0.00,,---,0.00,VWS V12.07,2013-02-09 08:36:00,
2013-02-09 03:42:00,16.5,7.2,29.41,NE,42,0.0,0.0,66,0.00,,---,0.00,VWS V12.07,2013-02-09 08:42:00,
2013-02-09 03:49:00,16.7,7.3,29.41,ENE,59,0.0,0.0,66,0.00,,---,0.00,VWS V12.07,2013-02-09 08:49:00,
2013-02-09 03:55:00,16.7,7.7,29.41,WNW,297,0.0,0.0,67,0.00,,---,0.00,VWS V12.07,2013-02-09 08:55:00,
2013-02-09 04:01:00,16.9,7.8,29.41,ENE,74,0.0,0.0,67,0.00,,---,0.00,VWS V12.07,2013-02-09 09:01:00,
2013-02-09 04:07:00,16.9,7.8,29.41,WNW,297,0.0,0.0,67,0.00,,---,0.00,VWS V12.07,2013-02-09 09:07:00,
2013-02-09 04:14:00,16.9,7.8,29.41,NE,35,0.0,0.0,67,0.00,,---,0.00,VWS V12.07,2013-02-09 09:14:00,
2013-02-09 04:19:00,16.9,7.8,29.41,WNW,293,0.0,0.0,67,0.00,,---,0.00,VWS V12.07,2013-02-09 09:19:00,
2013-02-09 04:25:00,17.1,8.3,29.41,NNE,24,0.0,0.0,68,0.00,,---,0.00,VWS V12.07,2013-02-09 09:25:00,
2013-02-09 04:31:00,17.1,8.3,29.41,NNW,341,0.0,0.0,68,0.00,,---,0.00,VWS V12.07,2013-02-09 09:31:00,
2013-02-09 04:37:00,17.1,8.3,29.41,NE,41,0.0,0.0,68,0.00,,---,0.00,VWS V12.07,2013-02-09 09:37:00,
2013-02-09 04:43:00,17.2,8.5,29.41,SSE,156,0.0,0.0,68,0.00,,---,0.00,VWS V12.07,2013-02-09 09:43:00,
2013-02-09 04:49:00,17.2,8.5,29.41,NNE,15,0.0,0.0,68,0.00,,---,0.00,VWS V12.07,2013-02-09 09:49:00,
2013-02-09 04:55:00,17.4,9.0,29.41,NE,48,0.0,0.0,69,0.00,,---,0.00,VWS V12.07,2013-02-09 09:55:00,
2013-02-09 05:01:00,17.4,9.0,29.41,South,189,0.0,0.0,69,0.00,,---,0.00,VWS V12.07,2013-02-09 10:01:00,
2013-02-09 05:07:00,17.4,9.0,29.41,East,86,0.0,0.0,69,0.00,,---,0.00,VWS V12.07,2013-02-09 10:07:00,
2013-02-09 05:13:00,17.6,9.2,29.41,NE,46,0.0,0.0,69,0.00,,---,0.00,VWS V12.07,2013-02-09 10:13:00,
2013-02-09 05:19:00,17.6,9.5,29.41,SE,128,0.0,0.0,70,0.00,,---,0.00,VWS V12.07,2013-02-09 10:19:00,
2013-02-09 05:25:00,17.8,9.4,29.41,West,260,0.0,0.0,69,0.00,,---,0.00,VWS V12.07,2013-02-09 10:25:00,
2013-02-09 05:31:00,17.8,9.7,29.41,NE,39,0.0,0.0,70,0.00,,---,0.00,VWS V12.07,2013-02-09 10:31:00,
2013-02-09 05:37:00,17.8,9.7,29.41,West,268,0.0,0.0,70,0.00,,---,0.00,VWS V12.07,2013-02-09 10:37:00,
2013-02-09 05:43:00,17.8,9.7,29.41,NE,49,0.0,0.0,70,0.00,,---,0.00,VWS V12.07,2013-02-09 10:43:00,
2013-02-09 05:49:00,17.8,9.7,29.41,South,172,0.0,0.0,70,0.00,,---,0.00,VWS V12.07,2013-02-09 10:49:00,
2013-02-09 05:56:00,17.8,9.7,29.41,West,259,0.0,0.0,70,0.00,,---,0.00,VWS V12.07,2013-02-09 10:56:00,
2013-02-09 06:01:00,17.8,9.7,29.41,ENE,61,0.0,0.0,70,0.00,,---,0.00,VWS V12.07,2013-02-09 11:01:00,
2013-02-09 06:07:00,17.8,9.7,29.41,NE,51,0.0,0.0,70,0.00,,---,0.00,VWS V12.07,2013-02-09 11:07:00,
2013-02-09 06:14:00,17.8,9.7,29.41,NNE,27,0.0,0.0,70,0.00,,---,0.00,VWS V12.07,2013-02-09 11:14:00,
2013-02-09 06:20:00,17.8,9.7,29.44,NE,34,0.0,0.0,70,0.00,,---,0.00,VWS V12.07,2013-02-09 11:20:00,
2013-02-09 06:28:00,18.1,10.0,29.44,ESE,103,0.0,0.0,70,0.00,,---,0.00,VWS V12.07,2013-02-09 11:28:00,
2013-02-09 06:34:00,18.1,10.3,29.44,NNW,332,0.0,0.0,71,0.00,,---,0.00,VWS V12.07,2013-02-09 11:34:00,
2013-02-09 06:40:00,18.3,10.5,29.44,WSW,245,0.0,0.0,71,0.00,,---,0.00,VWS V12.07,2013-02-09 11:40:00,
2013-02-09 06:46:00,18.5,10.7,29.44,NE,40,0.0,0.0,71,0.00,,---,0.00,VWS V12.07,2013-02-09 11:46:00,
2013-02-09 06:52:00,18.7,11.2,29.44,NNE,15,0.0,0.0,72,0.00,,---,0.00,VWS V12.07,2013-02-09 11:52:00,
2013-02-09 06:58:00,18.9,11.3,29.44,NE,37,0.0,0.0,72,0.00,,---,0.00,VWS V12.07,2013-02-09 11:58:00,
2013-02-09 07:04:00,19.0,11.8,29.44,ENE,76,0.0,0.0,73,0.00,,---,0.00,VWS V12.07,2013-02-09 12:04:00,
2013-02-09 07:10:00,19.2,12.0,29.44,NE,55,0.0,0.0,73,0.00,,---,0.00,VWS V12.07,2013-02-09 12:10:00,
2013-02-09 07:17:00,19.4,12.2,29.44,NNE,23,0.0,0.0,73,0.00,,---,0.00,VWS V12.07,2013-02-09 12:17:00,
2013-02-09 07:24:00,19.4,12.2,29.47,NW,310,0.0,0.0,73,0.00,,---,0.00,VWS V12.07,2013-02-09 12:24:00,
2013-02-09 07:30:00,19.4,12.2,29.47,NW,310,0.0,0.0,73,0.00,,---,0.00,VWS V12.07,2013-02-09 12:30:00,
2013-02-09 07:37:00,19.6,12.4,29.47,ESE,123,0.0,0.0,73,0.00,,---,0.00,VWS V12.07,2013-02-09 12:37:00,
2013-02-09 07:44:00,19.6,12.4,29.47,NNW,346,0.0,0.0,73,0.00,,---,0.00,VWS V12.07,2013-02-09 12:44:00,
2013-02-09 07:50:00,19.6,12.4,29.47,NNW,342,0.0,0.0,73,0.00,,---,0.00,VWS V12.07,2013-02-09 12:50:00,
2013-02-09 07:56:00,19.8,12.5,29.47,East,100,0.0,0.0,73,0.00,,---,0.00,VWS V12.07,2013-02-09 12:56:00,
2013-02-09 08:02:00,19.9,13.0,29.47,NNW,334,0.0,0.0,74,0.00,,---,0.00,VWS V12.07,2013-02-09 13:02:00,
2013-02-09 08:09:00,20.1,13.2,29.47,ENE,74,0.0,0.0,74,0.00,,---,0.00,VWS V12.07,2013-02-09 13:09:00,
2013-02-09 08:15:00,20.3,13.4,29.47,ENE,59,0.0,0.0,74,0.00,,---,0.00,VWS V12.07,2013-02-09 13:15:00,
2013-02-09 08:22:00,20.3,13.4,29.50,West,265,0.0,0.0,74,0.00,,---,0.00,VWS V12.07,2013-02-09 13:22:00,
2013-02-09 08:29:00,20.3,13.4,29.50,North,357,0.0,0.0,74,0.00,,---,0.00,VWS V12.07,2013-02-09 13:29:00,
2013-02-09 08:36:00,20.3,13.4,29.50,WSW,255,0.0,0.0,74,0.00,,---,0.00,VWS V12.07,2013-02-09 13:36:00,
2013-02-09 08:42:00,20.1,13.2,29.50,NNE,20,0.0,0.0,74,0.00,,---,0.00,VWS V12.07,2013-02-09 13:42:00,
2013-02-09 08:49:00,20.1,13.2,29.50,NW,317,0.0,0.0,74,0.00,,---,0.00,VWS V12.07,2013-02-09 13:49:00,
2013-02-09 08:56:00,20.1,13.2,29.50,ENE,73,0.0,0.0,74,0.00,,---,0.00,VWS V12.07,2013-02-09 13:56:00,
2013-02-09 09:03:00,20.1,13.2,29.50,NE,45,0.0,0.0,74,0.00,,---,0.00,VWS V12.07,2013-02-09 14:03:00,
2013-02-09 09:10:00,20.1,13.2,29.50,East,91,0.0,0.0,74,0.00,,---,0.00,VWS V12.07,2013-02-09 14:10:00,
2013-02-09 09:16:00,19.9,13.0,29.50,East,96,0.0,0.0,74,0.00,,---,0.00,VWS V12.07,2013-02-09 14:16:00,
2013-02-09 09:22:00,19.8,12.8,29.53,SW,214,0.0,0.0,74,0.00,,---,0.00,VWS V12.07,2013-02-09 14:22:00,
2013-02-09 09:28:00,19.6,12.4,29.53,South,175,0.0,0.0,73,0.00,,---,0.00,VWS V12.07,2013-02-09 14:28:00,
2013-02-09 09:36:00,19.4,12.2,29.53,WNW,292,0.0,0.0,73,0.00,,---,0.00,VWS V12.07,2013-02-09 14:36:00,
2013-02-09 09:43:00,19.2,12.0,29.53,NW,312,0.0,0.0,73,0.00,,---,0.00,VWS V12.07,2013-02-09 14:43:00,
2013-02-09 09:49:00,18.9,11.3,29.53,NW,313,0.0,0.0,72,0.00,,---,0.00,VWS V12.07,2013-02-09 14:49:00,
2013-02-09 09:55:00,18.5,11.0,29.53,NNE,25,0.0,0.0,72,0.00,,---,0.00,VWS V12.07,2013-02-09 14:55:00,
2013-02-09 10:03:00,18.3,10.5,29.53,NE,46,0.0,0.0,71,0.00,,---,0.00,VWS V12.07,2013-02-09 15:03:00,
2013-02-09 10:08:00,18.1,10.3,29.56,NW,307,0.0,0.0,71,0.00,,---,0.00,VWS V12.07,2013-02-09 15:08:00,
2013-02-09 10:15:00,18.1,10.3,29.56,NW,306,0.0,0.0,71,0.00,,---,0.00,VWS V12.07,2013-02-09 15:15:00,
2013-02-09 10:22:00,18.1,10.3,29.56,East,83,0.0,0.0,71,0.00,,---,0.00,VWS V12.07,2013-02-09 15:22:00,
2013-02-09 10:28:00,18.0,10.2,29.56,ESE,115,0.0,0.0,71,0.00,,---,0.00,VWS V12.07,2013-02-09 15:28:00,
2013-02-09 10:34:00,18.0,10.2,29.56,NNW,338,0.0,0.0,71,0.00,,---,0.00,VWS V12.07,2013-02-09 15:34:00,
2013-02-09 10:43:00,18.1,10.3,29.56,NNW,346,0.0,0.0,71,0.00,,---,0.00,VWS V12.07,2013-02-09 15:43:00,
2013-02-09 10:50:00,18.3,10.5,29.56,NE,45,0.0,0.0,71,0.00,,---,0.00,VWS V12.07,2013-02-09 15:50:00,
2013-02-09 10:56:00,18.5,11.0,29.56,WNW,302,0.0,0.0,72,0.00,,---,0.00,VWS V12.07,2013-02-09 15:56:00,
2013-02-09 11:03:00,18.7,11.2,29.56,West,261,0.0,0.0,72,0.00,,---,0.00,VWS V12.07,2013-02-09 16:03:00,
2013-02-09 11:10:00,19.0,11.8,29.56,West,281,0.0,0.0,73,0.00,,---,0.00,VWS V12.07,2013-02-09 16:10:00,
2013-02-09 11:18:00,19.0,11.8,29.56,West,274,0.0,0.0,73,0.00,,---,0.00,VWS V12.07,2013-02-09 16:18:00,
2013-02-09 11:25:00,19.2,12.0,29.56,NNW,339,0.0,0.0,73,0.00,,---,0.00,VWS V12.07,2013-02-09 16:25:00,
2013-02-09 11:31:00,19.4,12.5,29.56,NNE,30,0.0,0.0,74,0.00,,---,0.00,VWS V12.07,2013-02-09 16:31:00,
2013-02-09 11:39:00,19.6,12.4,29.56,ENE,59,0.0,0.0,73,0.00,,---,0.00,VWS V12.07,2013-02-09 16:39:00,
2013-02-09 11:46:00,19.6,12.6,29.56,NE,55,0.0,0.0,74,0.00,,---,0.00,VWS V12.07,2013-02-09 16:46:00,
2013-02-09 11:54:00,19.8,12.8,29.59,WNW,293,0.0,0.0,74,0.00,,---,0.00,VWS V12.07,2013-02-09 16:54:00,
2013-02-09 12:01:00,19.6,12.6,29.59,NNW,332,0.0,0.0,74,0.00,,---,0.00,VWS V12.07,2013-02-09 17:01:00,
2013-02-09 12:08:00,19.8,12.8,29.59,NNW,337,0.0,0.0,74,0.00,,---,0.00,VWS V12.07,2013-02-09 17:08:00,
2013-02-09 12:15:00,19.9,13.0,29.59,East,84,0.0,0.0,74,0.00,,---,0.00,VWS V12.07,2013-02-09 17:15:00,
2013-02-09 12:21:00,20.1,13.2,29.59,NE,38,0.0,0.0,74,0.00,,---,0.00,VWS V12.07,2013-02-09 17:21:00,
2013-02-09 12:28:00,20.3,13.7,29.59,ENE,68,0.0,0.0,75,0.00,,---,0.00,VWS V12.07,2013-02-09 17:28:00,
2013-02-09 12:35:00,20.3,13.7,29.59,WNW,285,0.0,0.0,75,0.00,,---,0.00,VWS V12.07,2013-02-09 17:35:00,
2013-02-09 12:42:00,20.3,13.7,29.59,NNW,328,0.0,0.0,75,0.00,,---,0.00,VWS V12.07,2013-02-09 17:42:00,
2013-02-09 12:49:00,20.5,13.8,29.59,SW,223,0.0,0.0,75,0.00,,---,0.00,VWS V12.07,2013-02-09 17:49:00,
2013-02-09 12:55:00,20.7,14.0,29.62,SSE,159,0.0,0.0,75,0.00,,---,0.00,VWS V12.07,2013-02-09 17:55:00,
2013-02-09 13:01:00,20.8,14.5,29.62,WSW,242,0.0,0.0,76,0.00,,---,0.00,VWS V12.07,2013-02-09 18:01:00,
2013-02-09 13:08:00,20.8,14.5,29.62,ENE,68,0.0,0.0,76,0.00,,---,0.00,VWS V12.07,2013-02-09 18:08:00,
2013-02-09 13:16:00,20.7,14.3,29.62,NNE,26,0.0,0.0,76,0.00,,---,0.00,VWS V12.07,2013-02-09 18:16:00,
2013-02-09 13:23:00,20.7,14.3,29.62,NNE,15,0.0,0.0,76,0.00,,---,0.00,VWS V12.07,2013-02-09 18:23:00,
2013-02-09 13:29:00,20.8,14.5,29.62,SW,227,0.0,0.0,76,0.00,,---,0.00,VWS V12.07,2013-02-09 18:29:00,
2013-02-09 13:35:00,21.0,14.7,29.62,SSW,207,0.0,0.0,76,0.00,,---,0.00,VWS V12.07,2013-02-09 18:35:00,
2013-02-09 13:41:00,21.2,15.1,29.62,East,100,0.0,0.0,77,0.00,,---,0.00,VWS V12.07,2013-02-09 18:41:00,
2013-02-09 13:47:00,21.4,15.0,29.62,NE,35,0.0,0.0,76,0.00,,---,0.00,VWS V12.07,2013-02-09 18:47:00,
2013-02-09 13:54:00,21.2,15.1,29.65,NNE,30,0.0,0.0,77,0.00,,---,0.00,VWS V12.07,2013-02-09 18:54:00,
2013-02-09 14:02:00,21.4,15.0,29.65,NE,36,0.0,0.0,76,0.00,,---,0.00,VWS V12.07,2013-02-09 19:02:00,
2013-02-09 14:10:00,21.2,15.1,29.65,East,99,0.0,0.0,77,0.00,,---,0.00,VWS V12.07,2013-02-09 19:10:00,
2013-02-09 14:17:00,21.2,14.8,29.65,NNE,33,0.0,0.0,76,0.00,,---,0.00,VWS V12.07,2013-02-09 19:17:00,
2013-02-09 14:24:00,21.0,14.7,29.65,ESE,122,0.0,0.0,76,0.00,,---,0.00,VWS V12.07,2013-02-09 19:24:00,
2013-02-09 14:31:00,21.0,14.7,29.65,NNE,26,0.0,0.0,76,0.00,,---,0.00,VWS V12.07,2013-02-09 19:31:00,
2013-02-09 14:38:00,20.7,14.0,29.68,ESE,121,0.0,0.0,75,0.00,,---,0.00,VWS V12.07,2013-02-09 19:38:00,
2013-02-09 14:45:00,20.3,13.7,29.68,SSW,198,0.0,0.0,75,0.00,,---,0.00,VWS V12.07,2013-02-09 19:45:00,
2013-02-09 14:51:00,20.3,13.7,29.68,North,357,0.0,0.0,75,0.00,,---,0.00,VWS V12.07,2013-02-09 19:51:00,
2013-02-09 14:59:00,19.9,13.0,29.68,NE,36,0.0,0.0,74,0.00,,---,0.00,VWS V12.07,2013-02-09 19:59:00,
2013-02-09 15:06:00,19.9,13.0,29.71,NW,305,0.0,0.0,74,0.00,,---,0.00,VWS V12.07,2013-02-09 20:06:00,
2013-02-09 15:14:00,19.8,12.8,29.71,NE,34,0.0,0.0,74,0.00,,---,0.00,VWS V12.07,2013-02-09 20:14:00,
2013-02-09 15:22:00,19.8,12.8,29.71,WNW,289,0.0,0.0,74,0.00,,---,0.00,VWS V12.07,2013-02-09 20:22:00,
2013-02-09 15:29:00,19.8,12.8,29.71,ESE,115,0.0,0.0,74,0.00,,---,0.00,VWS V12.07,2013-02-09 20:29:00,
2013-02-09 15:37:00,19.8,12.8,29.74,WNW,287,0.0,0.0,74,0.00,,---,0.00,VWS V12.07,2013-02-09 20:37:00,
2013-02-09 15:44:00,19.8,12.8,29.74,NNE,33,0.0,0.0,74,0.00,,---,0.00,VWS V12.07,2013-02-09 20:44:00,
2013-02-09 15:51:00,19.8,12.8,29.74,SSW,205,0.0,0.0,74,0.00,,---,0.00,VWS V12.07,2013-02-09 20:51:00,
2013-02-09 15:59:00,19.8,12.8,29.74,West,280,0.0,0.0,74,0.00,,---,0.00,VWS V12.07,2013-02-09 20:59:00,
2013-02-09 16:07:00,19.6,12.6,29.77,WNW,299,0.0,0.0,74,0.00,,---,0.00,VWS V12.07,2013-02-09 21:07:00,
2013-02-09 16:14:00,19.6,12.6,29.77,WSW,255,0.0,0.0,74,0.00,,---,0.00,VWS V12.07,2013-02-09 21:14:00,
2013-02-09 16:22:00,19.6,12.6,29.77,North,350,0.0,0.0,74,0.00,,---,0.00,VWS V12.07,2013-02-09 21:22:00,
2013-02-09 16:30:00,19.4,12.5,29.77,ENE,61,0.0,0.0,74,0.00,,---,0.00,VWS V12.07,2013-02-09 21:30:00,
2013-02-09 16:37:00,19.4,12.5,29.77,North,350,0.0,0.0,74,0.00,,---,0.00,VWS V12.07,2013-02-09 21:37:00,
2013-02-09 16:45:00,19.4,12.5,29.77,ENE,69,5.4,8.3,74,0.00,,---,0.00,VWS V12.07,2013-02-09 21:45:00,
2013-02-09 16:53:00,19.4,12.5,29.80,WNW,285,3.6,11.9,74,0.00,,---,0.00,VWS V12.07,2013-02-09 21:53:00,
2013-02-09 17:00:00,19.2,12.3,29.80,West,278,3.1,4.0,74,0.00,,---,0.00,VWS V12.07,2013-02-09 22:00:00,
2013-02-09 17:07:00,19.2,12.3,29.80,ENE,59,3.1,8.1,74,0.00,,---,0.00,VWS V12.07,2013-02-09 22:07:00,
2013-02-09 17:15:00,19.2,12.0,29.80,NNW,332,7.2,7.2,73,0.00,,---,0.00,VWS V12.07,2013-02-09 22:15:00,
2013-02-09 17:22:00,19.2,12.0,29.80,West,259,5.8,13.2,73,0.00,,---,0.00,VWS V12.07,2013-02-09 22:22:00,
2013-02-09 17:30:00,19.0,11.8,29.80,NE,44,4.0,5.4,73,0.00,,---,0.00,VWS V12.07,2013-02-09 22:30:00,
2013-02-09 17:37:00,19.0,11.8,29.80,North,5,0.0,8.3,73,0.00,,---,0.00,VWS V12.07,2013-02-09 22:37:00,
2013-02-09 17:44:00,19.0,11.8,29.80,NE,38,4.0,8.3,73,0.00,,---,0.00,VWS V12.07,2013-02-09 22:44:00,
2013-02-09 17:51:00,18.9,11.6,29.83,NW,319,5.8,6.3,73,0.00,,---,0.00,VWS V12.07,2013-02-09 22:51:00,
2013-02-09 17:59:00,18.7,11.5,29.83,WSW,246,2.2,6.3,73,0.00,,---,0.00,VWS V12.07,2013-02-09 22:59:00,
2013-02-09 18:06:00,18.7,11.5,29.83,NE,54,3.1,8.7,73,0.00,,---,0.00,VWS V12.07,2013-02-09 23:06:00,
2013-02-09 18:14:00,18.7,11.5,29.83,NNE,17,3.1,8.7,73,0.00,,---,0.00,VWS V12.07,2013-02-09 23:14:00,
2013-02-09 18:21:00,18.7,11.5,29.85,NE,37,3.6,8.3,73,0.00,,---,0.00,VWS V12.07,2013-02-09 23:21:00,
2013-02-09 18:29:00,18.5,11.3,29.85,SSW,205,0.0,8.7,73,0.00,,---,0.00,VWS V12.07,2013-02-09 23:29:00,
2013-02-09 18:35:00,18.5,11.3,29.85,ENE,63,3.1,12.8,73,0.00,,---,0.00,VWS V12.07,2013-02-09 23:35:00,
2013-02-09 18:44:00,18.5,11.0,29.85,NNW,335,3.1,12.8,72,0.00,,---,0.00,VWS V12.07,2013-02-09 23:44:00,
2013-02-09 18:51:00,18.3,10.8,29.85,NNW,335,3.6,13.2,72,0.00,,---,0.00,VWS V12.07,2013-02-09 23:51:00,
2013-02-09 18:59:00,18.3,10.8,29.85,NNW,335,7.6,13.2,72,0.00,,---,0.00,VWS V12.07,2013-02-09 23:59:00,
2013-02-09 19:07:00,18.1,10.6,29.88,NE,36,4.0,8.3,72,0.00,,---,0.00,VWS V12.07,2013-02-10 00:07:00,
2013-02-09 19:14:00,17.8,10.0,29.88,North,353,5.4,6.3,71,0.00,,---,0.00,VWS V12.07,2013-02-10 00:14:00,
2013-02-09 19:22:00,17.6,9.8,29.88,West,279,6.3,8.1,71,0.00,,---,0.00,VWS V12.07,2013-02-10 00:22:00,
2013-02-09 19:30:00,17.6,9.8,29.88,WNW,287,5.4,5.4,71,0.00,,---,0.00,VWS V12.07,2013-02-10 00:30:00,
2013-02-09 19:37:00,17.4,9.6,29.88,NE,40,3.1,10.1,71,0.00,,---,0.00,VWS V12.07,2013-02-10 00:37:00,
2013-02-09 19:44:00,17.1,9.0,29.88,NNE,33,3.6,3.6,70,0.00,,---,0.00,VWS V12.07,2013-02-10 00:44:00,
2013-02-09 19:53:00,17.1,9.0,29.88,NW,309,3.6,10.1,70,0.00,,---,0.00,VWS V12.07,2013-02-10 00:53:00,
2013-02-09 19:58:00,16.9,8.8,29.88,NNE,16,4.0,10.5,70,0.00,,---,0.00,VWS V12.07,2013-02-10 00:58:00,
2013-02-09 20:06:00,16.9,8.8,29.91,NNW,340,5.4,7.6,70,0.00,,---,0.00,VWS V12.07,2013-02-10 01:06:00,
2013-02-09 20:14:00,16.7,8.3,29.91,West,281,3.1,7.6,69,0.00,,---,0.00,VWS V12.07,2013-02-10 01:14:00,
2013-02-09 20:20:00,16.5,8.1,29.91,NNE,25,5.4,6.3,69,0.00,,---,0.00,VWS V12.07,2013-02-10 01:20:00,
2013-02-09 20:27:00,16.5,8.1,29.91,WNW,303,5.8,8.7,69,0.00,,---,0.00,VWS V12.07,2013-02-10 01:27:00,
2013-02-09 20:33:00,16.2,7.5,29.91,NNW,331,3.1,4.9,68,0.00,,---,0.00,VWS V12.07,2013-02-10 01:33:00,
2013-02-09 20:40:00,16.2,7.5,29.91,NNE,32,7.6,7.6,68,0.00,,---,0.00,VWS V12.07,2013-02-10 01:40:00,
2013-02-09 20:49:00,16.0,7.3,29.91,SW,221,2.7,7.6,68,0.00,,---,0.00,VWS V12.07,2013-02-10 01:49:00,
2013-02-09 20:57:00,15.8,7.1,29.91,NW,326,2.7,13.2,68,0.00,,---,0.00,VWS V12.07,2013-02-10 01:57:00,
2013-02-09 21:04:00,15.6,6.6,29.94,North,357,3.1,9.6,67,0.00,,---,0.00,VWS V12.07,2013-02-10 02:04:00,
2013-02-09 21:13:00,15.4,6.5,29.94,WNW,299,3.1,10.1,67,0.00,,---,0.00,VWS V12.07,2013-02-10 02:13:00,
2013-02-09 21:21:00,15.3,5.9,29.94,NW,308,3.6,10.1,66,0.00,,---,0.00,VWS V12.07,2013-02-10 02:21:00,
2013-02-09 21:27:00,15.1,5.8,29.94,NE,45,2.2,10.1,66,0.00,,---,0.00,VWS V12.07,2013-02-10 02:27:00,
2013-02-09 21:35:00,15.1,5.8,29.94,WNW,283,5.8,8.3,66,0.00,,---,0.00,VWS V12.07,2013-02-10 02:35:00,
2013-02-09 21:41:00,14.9,5.6,29.94,NE,43,2.7,11.0,66,0.00,,---,0.00,VWS V12.07,2013-02-10 02:41:00,
2013-02-09 21:48:00,14.9,5.3,29.94,NE,45,2.7,5.8,65,0.00,,---,0.00,VWS V12.07,2013-02-10 02:48:00,
2013-02-09 21:57:00,14.5,4.9,29.94,North,357,3.6,6.7,65,0.00,,---,0.00,VWS V12.07,2013-02-10 02:57:00,
2013-02-09 22:04:00,14.5,4.9,29.94,NE,41,2.2,8.3,65,0.00,,---,0.00,VWS V12.07,2013-02-10 03:04:00,
2013-02-09 22:12:00,14.4,4.4,29.94,NNE,28,3.1,8.3,64,0.00,,---,0.00,VWS V12.07,2013-02-10 03:12:00,
2013-02-09 22:19:00,14.2,4.2,29.94,SSW,213,3.1,5.8,64,0.00,,---,0.00,VWS V12.07,2013-02-10 03:19:00,
2013-02-09 22:26:00,14.2,4.2,29.94,North,353,3.6,7.2,64,0.00,,---,0.00,VWS V12.07,2013-02-10 03:26:00,
2013-02-09 22:33:00,14.0,4.1,29.94,South,170,3.1,8.1,64,0.00,,---,0.00,VWS V12.07,2013-02-10 03:33:00,
2013-02-09 22:39:00,13.8,3.9,29.94,NW,312,3.6,8.7,64,0.00,,---,0.00,VWS V12.07,2013-02-10 03:39:00,
2013-02-09 22:47:00,14.0,4.1,29.94,WSW,256,0.0,8.3,64,0.00,,---,0.00,VWS V12.07,2013-02-10 03:47:00,
2013-02-09 22:55:00,13.8,3.9,29.97,North,357,3.1,8.3,64,0.00,,---,0.00,VWS V12.07,2013-02-10 03:55:00,
2013-02-09 23:02:00,13.8,3.9,29.97,NNW,337,2.2,6.3,64,0.00,,---,0.00,VWS V12.07,2013-02-10 04:02:00,
2013-02-09 23:08:00,13.8,3.9,29.97,NNE,29,3.1,6.3,64,0.00,,---,0.00,VWS V12.07,2013-02-10 04:08:00,
2013-02-09 23:14:00,13.6,3.7,29.97,WNW,300,8.7,8.7,64,0.00,,---,0.00,VWS V12.07,2013-02-10 04:14:00,
2013-02-09 23:20:00,13.6,3.7,29.97,NNW,348,4.0,8.7,64,0.00,,---,0.00,VWS V12.07,2013-02-10 04:20:00,
2013-02-09 23:27:00,13.6,3.7,29.97,NNW,327,7.6,8.7,64,0.00,,---,0.00,VWS V12.07,2013-02-10 04:27:00,
2013-02-09 23:33:00,13.6,3.7,29.97,NNE,15,0.0,6.3,64,0.00,,---,0.00,VWS V12.07,2013-02-10 04:33:00,
2013-02-09 23:39:00,13.6,3.7,29.97,WNW,288,4.5,6.3,64,0.00,,---,0.00,VWS V12.07,2013-02-10 04:39:00,
2013-02-09 23:46:00,13.6,3.7,29.97,WNW,283,2.7,6.3,64,0.00,,---,0.00,VWS V12.07,2013-02-10 04:46:00,
2013-02-09 23:53:00,13.5,3.6,29.97,West,266,2.2,7.2,64,0.00,,---,0.00,VWS V12.07,2013-02-10 04:53:00,
2013-02-09 23:58:00,13.5,3.6,29.97,SE,144,3.1,7.2,64,0.00,,---,0.00,VWS V12.07,2013-02-10 04:58:00,